Time;durP1;ratioP1;P1;durP2;ratioP2;P2;SDS_P1;SDS_P2;PMS_P1;PMS_P2;Temp;Humidity;BMP_temperature;BMP_pressure;BME280_temperature;BME280_humidity;BME280_pressure;Samples;Min_cycle;Max_cycle;Signal;HPM_P1;HPM_P2
2023/03/16 00:02:12;;;;;;;;;;;4.60;99.90;;;;;;5052532;28;20336;-70
2023/03/16 00:04:38;;;;;;;;;;;4.60;99.90;;;;;;5052814;28;19951;-69
2023/03/16 00:07:04;;;;;;;;;;;4.60;99.90;;;;;;5069341;28;19928;-69
2023/03/16 00:09:30;;;;;;;;;;;4.60;99.90;;;;;;5068150;28;19924;-69
2023/03/16 00:11:56;;;;;;;;;;;4.60;99.90;;;;;;5052213;28;19931;-69
2023/03/16 00:14:22;;;;;;;;;;;4.60;99.90;;;;;;5052584;28;20357;-69
2023/03/16 00:16:48;;;;;;;;;;;4.60;99.90;;;;;;5068174;28;19932;-71
2023/03/16 00:19:13;;;;;;;;;;;4.60;99.90;;;;;;5069888;28;20007;-70
2023/03/16 00:21:39;;;;;;;;;;;4.60;99.90;;;;;;5051932;28;19924;-69
2023/03/16 00:24:05;;;;;;;;;;;4.60;99.90;;;;;;5065869;28;19989;-70
2023/03/16 00:26:30;;;;;;;;;;;4.60;99.90;;;;;;5052585;28;20283;-69
2023/03/16 00:28:56;;;;;;;;;;;4.60;99.90;;;;;;5054712;28;19936;-69
2023/03/16 00:31:23;;;;;;;;;;;4.60;99.90;;;;;;5072484;28;19967;-69
2023/03/16 00:33:49;;;;;;;;;;;4.60;99.90;;;;;;5072163;28;20014;-72
2023/03/16 00:36:15;;;;;;;;;;;4.60;99.90;;;;;;5054419;28;20066;-69
2023/03/16 00:38:44;;;;;;;;;;;4.60;99.90;;;;;;5039615;28;19935;-70
2023/03/16 00:41:13;;;;;;;;;;;4.60;99.90;;;;;;5086370;28;19920;-70
2023/03/16 00:43:42;;;;;;;;;;;4.60;99.90;;;;;;5076427;28;19928;-70
2023/03/16 00:46:10;;;;;;;;;;;4.60;99.90;;;;;;5055402;28;19963;-70
2023/03/16 00:48:36;;;;;;;;;;;4.60;99.90;;;;;;5055598;28;20058;-69
2023/03/16 00:51:05;;;;;;;;;;;4.60;99.90;;;;;;5059729;28;20007;-69
2023/03/16 00:53:34;;;;;;;;;;;4.60;99.90;;;;;;5055130;28;20386;-69
2023/03/16 00:56:03;;;;;;;;;;;4.60;99.90;;;;;;5072555;28;19936;-69
2023/03/16 00:58:34;;;;;;;;;;;4.60;99.90;;;;;;5073003;28;19940;-69
2023/03/16 01:01:07;;;;;;;;;;;4.60;99.90;;;;;;5057430;28;19925;-69
2023/03/16 01:03:33;;;;;;;;;;;4.50;99.90;;;;;;5038753;28;20378;-69
2023/03/16 01:06:03;;;;;;;;;;;4.60;99.90;;;;;;5054661;28;19971;-68
2023/03/16 01:08:29;;;;;;;;;;;4.60;99.90;;;;;;5050744;28;19931;-68
2023/03/16 01:10:54;;;;;;;;;;;4.60;99.90;;;;;;5072188;28;19928;-71
2023/03/16 01:13:20;;;;;;;;;;;4.60;99.90;;;;;;5072068;28;20361;-69
2023/03/16 01:15:48;;;;;;;;;;;4.60;99.90;;;;;;5054860;28;19958;-69
2023/03/16 01:18:14;;;;;;;;;;;4.60;99.90;;;;;;5057431;28;19931;-69
2023/03/16 01:20:42;;;;;;;;;;;4.60;99.90;;;;;;5075072;28;20007;-69
2023/03/16 01:23:07;;;;;;;;;;;4.60;99.90;;;;;;5048684;28;19924;-69
2023/03/16 01:25:33;;;;;;;;;;;4.70;99.90;;;;;;5034162;28;19932;-69
2023/03/16 01:27:59;;;;;;;;;;;5.00;99.90;;;;;;5069637;28;19940;-69
2023/03/16 01:30:24;;;;;;;;;;;4.60;99.90;;;;;;5069019;28;19971;-69
2023/03/16 01:32:50;;;;;;;;;;;4.60;99.90;;;;;;5072184;28;20056;-69
2023/03/16 01:35:15;;;;;;;;;;;4.60;99.90;;;;;;5074640;28;19924;-69
2023/03/16 01:37:41;;;;;;;;;;;4.60;99.90;;;;;;5073336;28;19925;-69
2023/03/16 01:40:07;;;;;;;;;;;4.60;99.90;;;;;;5071886;28;19928;-68
2023/03/16 01:42:43;;;;;;;;;;;4.60;99.90;;;;;;5068047;28;19928;-69
2023/03/16 01:45:28;;;;;;;;;;;4.60;99.90;;;;;;5070957;28;19943;-69
2023/03/16 01:47:54;;;;;;;;;;;4.50;99.90;;;;;;5071668;28;19979;-69
2023/03/16 01:50:21;;;;;;;;;;;4.80;99.90;;;;;;5053865;28;19979;-69
2023/03/16 01:52:47;;;;;;;;;;;4.50;99.90;;;;;;5050878;28;20289;-69
2023/03/16 01:55:13;;;;;;;;;;;4.50;99.90;;;;;;5053197;28;19929;-70
2023/03/16 01:57:42;;;;;;;;;;;4.60;99.90;;;;;;5054284;28;19982;-69
2023/03/16 02:00:13;;;;;;;;;;;4.50;99.90;;;;;;5058478;28;19932;-69
2023/03/16 02:02:42;;;;;;;;;;;4.50;99.90;;;;;;5054838;28;20393;-70
2023/03/16 02:05:12;;;;;;;;;;;4.50;99.90;;;;;;5071376;28;19924;-70
2023/03/16 02:07:49;;;;;;;;;;;4.50;99.90;;;;;;5071086;28;20023;-69
2023/03/16 02:10:16;;;;;;;;;;;4.50;99.90;;;;;;5062305;28;19932;-70
2023/03/16 02:12:43;;;;;;;;;;;4.50;99.90;;;;;;5071697;28;19936;-69
2023/03/16 02:15:10;;;;;;;;;;;4.50;99.90;;;;;;5056332;28;19967;-70
2023/03/16 02:17:36;;;;;;;;;;;4.60;99.90;;;;;;5053734;28;20436;-69
2023/03/16 02:20:03;;;;;;;;;;;4.50;99.90;;;;;;5053713;28;19928;-71
2023/03/16 02:22:34;;;;;;;;;;;4.50;99.90;;;;;;5067700;28;19975;-70
2023/03/16 02:25:00;;;;;;;;;;;4.50;99.90;;;;;;5061776;28;19929;-70
2023/03/16 02:27:35;;;;;;;;;;;4.50;99.90;;;;;;5063200;28;19950;-70
2023/03/16 02:30:04;;;;;;;;;;;4.50;99.90;;;;;;5054207;28;19925;-70
2023/03/16 02:32:30;;;;;;;;;;;4.50;99.90;;;;;;5055733;28;19924;-69
2023/03/16 02:34:57;;;;;;;;;;;4.50;99.90;;;;;;5037502;28;19928;-69
2023/03/16 02:37:23;;;;;;;;;;;4.50;99.90;;;;;;5053084;28;19928;-69
2023/03/16 02:39:48;;;;;;;;;;;4.60;99.90;;;;;;5057958;28;19955;-70
2023/03/16 02:42:15;;;;;;;;;;;4.50;99.90;;;;;;5036231;28;19928;-70
2023/03/16 02:44:42;;;;;;;;;;;4.50;99.90;;;;;;5054300;28;20389;-70
2023/03/16 02:47:12;;;;;;;;;;;4.50;99.90;;;;;;5053043;28;20344;-70
2023/03/16 02:49:42;;;;;;;;;;;4.60;99.90;;;;;;5055557;28;19925;-70
2023/03/16 02:52:08;;;;;;;;;;;4.60;99.90;;;;;;5050468;28;19924;-69
2023/03/16 02:54:34;;;;;;;;;;;4.60;99.90;;;;;;5026070;28;19985;-69
2023/03/16 02:56:59;;;;;;;;;;;4.60;99.90;;;;;;5038896;28;19925;-69
2023/03/16 02:59:25;;;;;;;;;;;4.60;99.90;;;;;;5062796;28;19932;-69
2023/03/16 03:01:51;;;;;;;;;;;4.60;99.90;;;;;;5052915;28;19928;-69
2023/03/16 03:04:17;;;;;;;;;;;4.60;99.90;;;;;;5061048;28;20408;-69
2023/03/16 03:06:42;;;;;;;;;;;4.60;99.90;;;;;;5054258;28;19924;-69
2023/03/16 03:09:10;;;;;;;;;;;4.60;99.90;;;;;;5033779;28;20297;-71
2023/03/16 03:11:36;;;;;;;;;;;4.70;99.90;;;;;;5050398;28;20003;-69
2023/03/16 03:14:02;;;;;;;;;;;4.70;99.90;;;;;;5053180;28;20003;-71
2023/03/16 03:16:28;;;;;;;;;;;4.70;99.90;;;;;;5036630;28;19929;-69
2023/03/16 03:18:53;;;;;;;;;;;4.70;99.90;;;;;;5071043;28;20068;-69
2023/03/16 03:21:19;;;;;;;;;;;4.70;99.90;;;;;;5035880;28;19925;-69
2023/03/16 03:23:45;;;;;;;;;;;4.70;99.90;;;;;;5070349;28;19925;-70
2023/03/16 03:26:13;;;;;;;;;;;4.70;99.90;;;;;;5054047;28;19928;-71
2023/03/16 03:28:39;;;;;;;;;;;4.80;99.90;;;;;;5052866;28;19925;-69
2023/03/16 03:31:04;;;;;;;;;;;4.70;99.90;;;;;;5056218;28;20006;-69
2023/03/16 03:33:32;;;;;;;;;;;4.70;99.90;;;;;;5057979;28;20080;-68
2023/03/16 03:35:58;;;;;;;;;;;4.70;99.90;;;;;;5070444;28;20415;-68
2023/03/16 03:38:24;;;;;;;;;;;4.70;99.90;;;;;;5052116;28;19925;-69
2023/03/16 03:40:50;;;;;;;;;;;4.60;99.90;;;;;;5052269;28;19925;-69
2023/03/16 03:43:16;;;;;;;;;;;4.70;99.90;;;;;;5055281;28;19928;-69
2023/03/16 03:45:42;;;;;;;;;;;4.70;99.90;;;;;;5070400;28;20007;-69
2023/03/16 03:48:07;;;;;;;;;;;4.70;99.90;;;;;;5037463;28;19924;-69
2023/03/16 03:50:33;;;;;;;;;;;4.70;99.90;;;;;;5070052;28;20092;-68
2023/03/16 03:52:58;;;;;;;;;;;4.70;99.90;;;;;;5039294;28;19924;-69
2023/03/16 03:55:24;;;;;;;;;;;4.90;99.90;;;;;;5066140;28;19924;-69
2023/03/16 03:57:49;;;;;;;;;;;4.70;99.90;;;;;;5037045;28;19928;-69
2023/03/16 04:00:19;;;;;;;;;;;4.70;99.90;;;;;;5052211;28;19931;-70
2023/03/16 04:02:44;;;;;;;;;;;4.60;99.90;;;;;;5068946;28;19925;-69
2023/03/16 04:05:10;;;;;;;;;;;4.70;99.90;;;;;;5049048;28;19978;-69
2023/03/16 04:07:36;;;;;;;;;;;4.60;99.90;;;;;;5053015;28;20136;-68
2023/03/16 04:10:01;;;;;;;;;;;4.70;99.90;;;;;;5035920;28;20018;-69
2023/03/16 04:12:27;;;;;;;;;;;4.70;99.90;;;;;;5051992;28;19971;-69
2023/03/16 04:14:52;;;;;;;;;;;4.60;99.90;;;;;;5062541;28;19933;-69
2023/03/16 04:17:18;;;;;;;;;;;4.70;99.90;;;;;;5039238;28;19932;-71
2023/03/16 04:19:43;;;;;;;;;;;4.60;99.90;;;;;;5061577;28;20261;-69
2023/03/16 04:22:09;;;;;;;;;;;4.60;99.90;;;;;;5042151;28;19928;-69
2023/03/16 04:24:35;;;;;;;;;;;4.60;99.90;;;;;;5055831;28;19947;-69
2023/03/16 04:27:01;;;;;;;;;;;4.60;99.90;;;;;;5073807;28;20036;-69
2023/03/16 04:29:27;;;;;;;;;;;4.60;99.90;;;;;;5071991;28;19928;-69
2023/03/16 04:31:53;;;;;;;;;;;4.60;99.90;;;;;;5058390;28;19925;-69
2023/03/16 04:34:23;;;;;;;;;;;4.60;99.90;;;;;;5056097;28;20352;-68
2023/03/16 04:36:52;;;;;;;;;;;4.60;99.90;;;;;;5044797;28;19932;-69
2023/03/16 04:39:18;;;;;;;;;;;4.50;99.90;;;;;;5055326;28;19933;-70
2023/03/16 04:41:44;;;;;;;;;;;4.50;99.90;;;;;;5055444;28;20024;-69
2023/03/16 04:44:10;;;;;;;;;;;4.50;99.90;;;;;;5039171;28;20015;-69
2023/03/16 04:46:35;;;;;;;;;;;4.50;99.90;;;;;;5057917;28;19924;-69
2023/03/16 04:49:01;;;;;;;;;;;4.60;99.90;;;;;;5042046;28;19939;-68
2023/03/16 04:51:27;;;;;;;;;;;4.50;99.90;;;;;;5072528;28;19928;-69
2023/03/16 04:53:53;;;;;;;;;;;4.60;99.90;;;;;;5039078;28;19932;-68
2023/03/16 04:56:18;;;;;;;;;;;4.60;99.90;;;;;;5065613;28;19928;-69
2023/03/16 04:58:45;;;;;;;;;;;4.50;99.90;;;;;;5058413;28;19928;-69
2023/03/16 05:01:10;;;;;;;;;;;4.50;99.90;;;;;;5056055;28;19975;-69
2023/03/16 05:03:36;;;;;;;;;;;4.50;99.90;;;;;;5072692;28;19967;-69
2023/03/16 05:06:01;;;;;;;;;;;4.50;99.90;;;;;;5045169;28;19935;-69
2023/03/16 05:08:27;;;;;;;;;;;4.50;99.90;;;;;;5055983;28;19924;-69
2023/03/16 05:10:56;;;;;;;;;;;4.50;99.90;;;;;;5055070;28;20335;-69
2023/03/16 05:13:22;;;;;;;;;;;4.60;99.90;;;;;;5057113;28;19951;-69
2023/03/16 05:15:47;;;;;;;;;;;4.60;99.90;;;;;;5071911;28;19932;-69
2023/03/16 05:18:13;;;;;;;;;;;4.50;99.90;;;;;;5021443;28;19929;-69
2023/03/16 05:20:40;;;;;;;;;;;4.60;99.90;;;;;;5018577;28;19929;-69
2023/03/16 05:23:07;;;;;;;;;;;4.60;99.90;;;;;;5052854;28;19986;-69
2023/03/16 05:25:33;;;;;;;;;;;4.60;99.90;;;;;;5070590;28;20019;-69
2023/03/16 05:27:58;;;;;;;;;;;4.60;99.90;;;;;;5039992;28;20325;-69
2023/03/16 05:30:25;;;;;;;;;;;4.50;99.90;;;;;;5055030;28;20020;-69
2023/03/16 05:32:51;;;;;;;;;;;4.50;99.90;;;;;;5054276;28;19929;-69
2023/03/16 05:35:16;;;;;;;;;;;4.50;99.90;;;;;;5054538;28;19935;-69
2023/03/16 05:37:42;;;;;;;;;;;4.50;99.90;;;;;;5055799;28;19925;-68
2023/03/16 05:40:21;;;;;;;;;;;4.50;99.90;;;;;;5038177;28;19963;-68
2023/03/16 05:42:48;;;;;;;;;;;4.50;99.90;;;;;;5057970;28;19932;-68
2023/03/16 05:45:15;;;;;;;;;;;4.50;99.90;;;;;;5068460;28;19924;-68
2023/03/16 05:47:40;;;;;;;;;;;4.50;99.90;;;;;;5071054;28;20024;-68
2023/03/16 05:50:08;;;;;;;;;;;4.50;99.90;;;;;;5062676;28;19999;-68
2023/03/16 05:52:34;;;;;;;;;;;4.50;99.90;;;;;;5017518;28;19967;-68
2023/03/16 05:54:59;;;;;;;;;;;4.50;99.90;;;;;;5043702;28;19963;-68
2023/03/16 05:57:25;;;;;;;;;;;4.50;99.90;;;;;;5053575;28;20369;-69
2023/03/16 05:59:51;;;;;;;;;;;4.60;99.90;;;;;;5060998;28;19920;-68
2023/03/16 06:02:17;;;;;;;;;;;4.50;99.90;;;;;;5035141;28;20313;-68
2023/03/16 06:04:43;;;;;;;;;;;4.50;99.90;;;;;;5057084;28;19925;-68
2023/03/16 06:07:08;;;;;;;;;;;4.50;99.90;;;;;;5053736;28;20102;-68
2023/03/16 06:09:34;;;;;;;;;;;4.50;99.90;;;;;;5070714;28;19924;-69
2023/03/16 06:12:00;;;;;;;;;;;4.50;99.90;;;;;;5061574;28;19928;-69
2023/03/16 06:14:25;;;;;;;;;;;4.50;99.90;;;;;;5054000;28;20062;-69
2023/03/16 06:16:51;;;;;;;;;;;4.50;99.90;;;;;;5071094;28;19936;-69
2023/03/16 06:19:16;;;;;;;;;;;4.50;99.90;;;;;;5053590;28;19932;-68
2023/03/16 06:21:42;;;;;;;;;;;4.50;99.90;;;;;;5055695;28;19983;-69
2023/03/16 06:24:08;;;;;;;;;;;4.50;99.90;;;;;;5053886;28;19931;-69
2023/03/16 06:26:34;;;;;;;;;;;4.50;99.90;;;;;;5057980;28;19924;-71
2023/03/16 06:28:59;;;;;;;;;;;4.50;99.90;;;;;;5053605;28;20047;-69
2023/03/16 06:31:25;;;;;;;;;;;4.50;99.90;;;;;;5053482;28;20332;-70
2023/03/16 06:33:51;;;;;;;;;;;4.50;99.90;;;;;;5070710;28;19931;-69
2023/03/16 06:36:16;;;;;;;;;;;4.50;99.90;;;;;;5054404;28;19937;-69
2023/03/16 06:38:42;;;;;;;;;;;4.50;99.90;;;;;;5051523;28;19956;-69
2023/03/16 06:41:07;;;;;;;;;;;4.50;99.90;;;;;;5070855;28;19928;-69
2023/03/16 06:43:33;;;;;;;;;;;4.50;99.90;;;;;;5057673;28;19970;-69
2023/03/16 06:46:00;;;;;;;;;;;4.50;99.90;;;;;;5052323;28;19971;-69
2023/03/16 06:48:25;;;;;;;;;;;4.60;99.90;;;;;;5053655;28;19924;-69
2023/03/16 06:50:51;;;;;;;;;;;4.50;99.90;;;;;;5070696;28;19933;-69
2023/03/16 06:53:17;;;;;;;;;;;4.60;99.90;;;;;;5055878;28;19929;-69
2023/03/16 06:55:42;;;;;;;;;;;4.60;99.90;;;;;;5070414;28;19935;-68
2023/03/16 06:58:08;;;;;;;;;;;4.60;99.90;;;;;;5070637;28;19970;-69
2023/03/16 07:00:33;;;;;;;;;;;4.60;99.90;;;;;;5036710;28;20003;-68
2023/03/16 07:03:00;;;;;;;;;;;4.60;99.90;;;;;;5053622;28;19928;-71
2023/03/16 07:05:26;;;;;;;;;;;4.60;99.90;;;;;;5037901;28;19973;-70
2023/03/16 07:07:53;;;;;;;;;;;4.70;99.90;;;;;;5037510;28;20287;-70
2023/03/16 07:10:18;;;;;;;;;;;4.70;99.90;;;;;;5039511;28;20057;-70
2023/03/16 07:12:44;;;;;;;;;;;4.70;99.90;;;;;;5044264;28;20007;-71
2023/03/16 07:15:10;;;;;;;;;;;4.80;99.90;;;;;;5058575;28;19924;-70
2023/03/16 07:17:36;;;;;;;;;;;4.70;99.90;;;;;;5050148;28;19940;-70
2023/03/16 07:20:04;;;;;;;;;;;4.80;99.90;;;;;;5048582;28;19956;-69
2023/03/16 07:22:31;;;;;;;;;;;4.90;99.90;;;;;;5052391;28;20008;-69
2023/03/16 07:24:57;;;;;;;;;;;4.80;99.90;;;;;;5069938;28;19968;-69
2023/03/16 07:27:22;;;;;;;;;;;4.80;99.90;;;;;;5053022;28;19982;-68
2023/03/16 07:29:49;;;;;;;;;;;4.80;99.90;;;;;;5061111;28;19928;-69
2023/03/16 07:32:14;;;;;;;;;;;4.90;99.90;;;;;;5038507;28;20311;-69
2023/03/16 07:34:40;;;;;;;;;;;4.90;99.90;;;;;;5055215;28;19925;-70
2023/03/16 07:37:07;;;;;;;;;;;4.90;99.90;;;;;;5052294;28;19935;-69
2023/03/16 07:39:36;;;;;;;;;;;4.90;99.90;;;;;;5054430;28;20285;-70
2023/03/16 07:42:02;;;;;;;;;;;5.00;99.90;;;;;;5052407;28;19936;-69
2023/03/16 07:44:28;;;;;;;;;;;5.00;99.90;;;;;;5064503;28;19943;-69
2023/03/16 07:46:54;;;;;;;;;;;5.10;99.90;;;;;;5051740;28;19929;-70
2023/03/16 07:49:20;;;;;;;;;;;5.00;99.90;;;;;;5038061;28;19967;-68
2023/03/16 07:51:45;;;;;;;;;;;5.10;99.90;;;;;;5056570;28;19929;-71
2023/03/16 07:54:12;;;;;;;;;;;5.10;99.90;;;;;;5074042;28;19946;-69
2023/03/16 07:56:38;;;;;;;;;;;5.10;99.90;;;;;;5074564;28;19935;-68
2023/03/16 07:59:04;;;;;;;;;;;5.20;99.90;;;;;;5055759;28;20278;-68
2023/03/16 08:01:29;;;;;;;;;;;5.20;99.90;;;;;;5058925;28;19924;-68
2023/03/16 08:03:55;;;;;;;;;;;5.20;99.90;;;;;;5039353;28;20374;-68
2023/03/16 08:06:20;;;;;;;;;;;5.30;99.90;;;;;;5068143;28;19979;-68
2023/03/16 08:08:47;;;;;;;;;;;5.30;99.90;;;;;;5073480;28;19928;-67
2023/03/16 08:11:13;;;;;;;;;;;5.30;99.90;;;;;;5073669;28;19955;-68
2023/03/16 08:13:42;;;;;;;;;;;5.40;99.90;;;;;;5073069;28;19928;-69
2023/03/16 08:16:09;;;;;;;;;;;5.50;99.90;;;;;;5073441;28;19924;-68
2023/03/16 08:18:35;;;;;;;;;;;5.50;99.90;;;;;;5073472;28;19925;-69
2023/03/16 08:21:01;;;;;;;;;;;5.50;99.90;;;;;;5056974;28;19981;-68
2023/03/16 08:23:28;;;;;;;;;;;5.50;99.90;;;;;;5065030;28;19932;-69
2023/03/16 08:25:54;;;;;;;;;;;5.50;99.90;;;;;;5055237;28;19974;-68
2023/03/16 08:28:20;;;;;;;;;;;5.50;99.90;;;;;;5073709;28;20372;-70
2023/03/16 08:30:50;;;;;;;;;;;5.50;99.90;;;;;;5056035;28;20007;-69
2023/03/16 08:33:16;;;;;;;;;;;5.50;99.90;;;;;;5058813;28;19931;-67
2023/03/16 08:35:43;;;;;;;;;;;5.50;99.90;;;;;;5073194;28;20385;-68
2023/03/16 08:38:09;;;;;;;;;;;5.50;99.90;;;;;;5073022;28;19963;-68
2023/03/16 08:40:35;;;;;;;;;;;5.40;99.90;;;;;;5055628;28;19939;-68
2023/03/16 08:43:01;;;;;;;;;;;5.40;99.90;;;;;;5072375;28;19928;-68
2023/03/16 08:45:27;;;;;;;;;;;5.40;99.90;;;;;;5073460;28;19993;-68
2023/03/16 08:47:53;;;;;;;;;;;5.40;99.90;;;;;;5073059;28;19970;-68
2023/03/16 08:50:19;;;;;;;;;;;5.40;99.90;;;;;;5073049;28;20019;-68
2023/03/16 08:52:45;;;;;;;;;;;5.40;99.90;;;;;;5056283;28;19964;-67
2023/03/16 08:55:12;;;;;;;;;;;5.30;99.90;;;;;;5044727;28;20025;-68
2023/03/16 08:57:38;;;;;;;;;;;5.40;99.90;;;;;;5043942;28;20015;-67
2023/03/16 09:00:22;;;;;;;;;;;5.40;99.90;;;;;;5073596;28;20028;-67
2023/03/16 09:02:47;;;;;;;;;;;5.40;99.90;;;;;;5067001;28;19932;-66
2023/03/16 09:05:14;;;;;;;;;;;5.40;99.90;;;;;;5056843;28;19925;-67
2023/03/16 09:07:41;;;;;;;;;;;5.40;99.90;;;;;;5058053;28;19974;-67
2023/03/16 09:10:07;;;;;;;;;;;5.40;99.90;;;;;;5071330;28;19929;-67
2023/03/16 09:12:35;;;;;;;;;;;5.40;99.90;;;;;;5072895;28;20276;-66
2023/03/16 09:15:01;;;;;;;;;;;5.40;99.90;;;;;;5070570;28;20316;-66
2023/03/16 09:17:27;;;;;;;;;;;5.50;99.90;;;;;;5071913;28;20720;-65
2023/03/16 09:19:53;;;;;;;;;;;5.50;99.90;;;;;;5071546;28;19928;-65
2023/03/16 09:22:19;;;;;;;;;;;5.50;99.90;;;;;;5072138;28;19985;-65
2023/03/16 09:24:44;;;;;;;;;;;5.50;99.90;;;;;;5058461;28;20028;-66
2023/03/16 09:27:10;;;;;;;;;;;5.40;99.90;;;;;;5072387;28;20410;-66
2023/03/16 09:29:36;;;;;;;;;;;5.40;99.90;;;;;;5069781;28;20009;-66
2023/03/16 09:32:02;;;;;;;;;;;5.40;99.90;;;;;;5071988;28;19925;-66
2023/03/16 09:34:28;;;;;;;;;;;5.40;99.90;;;;;;5072329;28;19976;-66
2023/03/16 09:36:54;;;;;;;;;;;5.40;99.90;;;;;;5071615;28;20364;-65
2023/03/16 09:39:21;;;;;;;;;;;5.40;99.90;;;;;;5053686;28;19925;-65
2023/03/16 09:41:48;;;;;;;;;;;5.40;99.90;;;;;;5072413;28;19983;-67
2023/03/16 09:44:33;;;;;;;;;;;5.40;99.90;;;;;;5053699;28;20346;-66
2023/03/16 09:47:00;;;;;;;;;;;5.40;99.90;;;;;;5066047;28;19924;-66
2023/03/16 09:49:27;;;;;;;;;;;5.50;99.90;;;;;;5065006;28;19959;-66
2023/03/16 09:51:56;;;;;;;;;;;5.50;99.90;;;;;;5067391;28;19970;-66
2023/03/16 09:54:38;;;;;;;;;;;5.60;99.90;;;;;;5071045;28;19928;-65
2023/03/16 09:57:04;;;;;;;;;;;5.70;99.90;;;;;;5065265;28;19968;-68
2023/03/16 09:59:30;;;;;;;;;;;5.80;99.90;;;;;;5054207;28;20408;-66
2023/03/16 10:01:59;;;;;;;;;;;5.80;99.90;;;;;;5041428;28;19976;-67
2023/03/16 10:04:38;;;;;;;;;;;5.90;99.90;;;;;;5054898;28;19920;-66
2023/03/16 10:07:11;;;;;;;;;;;5.90;99.90;;;;;;5070099;28;20373;-68
2023/03/16 10:09:38;;;;;;;;;;;5.90;99.90;;;;;;5048154;28;19940;-65
2023/03/16 10:12:05;;;;;;;;;;;5.90;99.90;;;;;;5071167;28;19928;-66
2023/03/16 10:14:31;;;;;;;;;;;5.90;99.90;;;;;;5067265;28;20007;-66
2023/03/16 10:17:02;;;;;;;;;;;5.90;99.90;;;;;;5060782;28;20024;-65
2023/03/16 10:19:42;;;;;;;;;;;6.00;99.90;;;;;;5066414;28;20445;-66
2023/03/16 10:22:17;;;;;;;;;;;6.00;99.90;;;;;;5067850;28;19931;-66
2023/03/16 10:24:42;;;;;;;;;;;6.00;99.90;;;;;;5071123;28;19940;-65
2023/03/16 10:27:15;;;;;;;;;;;6.00;99.90;;;;;;5070807;28;20335;-69
2023/03/16 10:29:41;;;;;;;;;;;6.00;99.90;;;;;;5057298;28;20370;-66
2023/03/16 10:32:15;;;;;;;;;;;6.10;99.90;;;;;;5038087;28;20016;-66
2023/03/16 10:35:01;;;;;;;;;;;6.00;99.90;;;;;;5054806;28;19932;-68
2023/03/16 10:37:29;;;;;;;;;;;6.00;99.90;;;;;;5041668;28;19928;-67
2023/03/16 10:39:55;;;;;;;;;;;6.00;99.90;;;;;;5070962;28;19990;-67
2023/03/16 10:42:21;;;;;;;;;;;6.00;99.90;;;;;;5070476;28;19925;-66
2023/03/16 10:44:47;;;;;;;;;;;6.00;99.90;;;;;;5058326;28;19932;-66
2023/03/16 10:47:21;;;;;;;;;;;5.90;99.90;;;;;;5069329;28;19961;-67
2023/03/16 10:49:50;;;;;;;;;;;5.90;99.90;;;;;;5062496;28;20404;-67
2023/03/16 10:52:28;;;;;;;;;;;5.90;99.90;;;;;;5069860;28;20441;-66
2023/03/16 10:55:06;;;;;;;;;;;5.90;99.90;;;;;;5069756;28;20305;-67
2023/03/16 10:57:33;;;;;;;;;;;6.00;99.90;;;;;;5070213;28;19924;-67
2023/03/16 11:00:05;;;;;;;;;;;6.00;99.90;;;;;;5069205;28;20069;-66
2023/03/16 11:02:33;;;;;;;;;;;6.00;99.90;;;;;;5053043;28;19929;-65
2023/03/16 11:04:59;;;;;;;;;;;6.00;99.90;;;;;;5053096;28;19939;-66
2023/03/16 11:07:26;;;;;;;;;;;6.00;99.90;;;;;;5070086;28;20340;-67
2023/03/16 11:09:53;;;;;;;;;;;6.10;99.90;;;;;;5070088;28;19931;-69
2023/03/16 11:12:23;;;;;;;;;;;6.10;99.90;;;;;;5070075;28;20373;-67
2023/03/16 11:14:48;;;;;;;;;;;6.00;99.90;;;;;;5070820;28;20454;-66
2023/03/16 11:17:33;;;;;;;;;;;6.10;99.90;;;;;;5052207;28;20067;-69
2023/03/16 11:20:04;;;;;;;;;;;6.10;99.90;;;;;;5070076;28;19936;-67
2023/03/16 11:22:30;;;;;;;;;;;6.10;99.90;;;;;;5062040;28;19982;-68
2023/03/16 11:24:56;;;;;;;;;;;6.20;99.90;;;;;;5052487;28;19990;-67
2023/03/16 11:27:31;;;;;;;;;;;6.20;99.90;;;;;;5069207;28;19975;-68
2023/03/16 11:30:15;;;;;;;;;;;6.20;99.90;;;;;;5052946;28;20354;-67
2023/03/16 11:32:44;;;;;;;;;;;6.20;99.90;;;;;;5065643;28;19924;-67
2023/03/16 11:35:15;;;;;;;;;;;6.30;99.90;;;;;;5070458;28;19936;-67
2023/03/16 11:37:47;;;;;;;;;;;6.40;99.90;;;;;;5070062;28;20431;-67
2023/03/16 11:40:15;;;;;;;;;;;6.50;99.90;;;;;;5070377;28;20059;-66
2023/03/16 11:42:58;;;;;;;;;;;6.60;99.90;;;;;;5069399;28;19928;-66
2023/03/16 11:45:41;;;;;;;;;;;6.60;99.90;;;;;;5069761;28;19925;-66
2023/03/16 11:48:07;;;;;;;;;;;6.70;99.90;;;;;;5069132;28;20431;-66
2023/03/16 11:50:52;;;;;;;;;;;6.70;99.90;;;;;;5069984;28;19929;-67
2023/03/16 11:53:27;;;;;;;;;;;6.80;99.90;;;;;;5065427;28;19932;-65
2023/03/16 11:56:05;;;;;;;;;;;6.80;99.90;;;;;;5068809;28;19932;-65
2023/03/16 11:58:51;;;;;;;;;;;6.80;99.90;;;;;;5069947;28;19928;-65
2023/03/16 12:01:21;;;;;;;;;;;6.80;99.90;;;;;;5069562;28;19995;-65
2023/03/16 12:04:00;;;;;;;;;;;6.80;99.90;;;;;;5070373;28;19924;-65
2023/03/16 12:06:37;;;;;;;;;;;6.90;99.90;;;;;;5069908;28;19971;-66
2023/03/16 12:09:03;;;;;;;;;;;6.90;99.90;;;;;;5055111;28;19936;-67
2023/03/16 12:11:34;;;;;;;;;;;7.00;99.90;;;;;;5069900;28;20000;-66
2023/03/16 12:14:07;;;;;;;;;;;7.00;99.90;;;;;;5070317;28;19924;-66
2023/03/16 12:16:50;;;;;;;;;;;7.10;99.90;;;;;;5053098;28;19934;-66
2023/03/16 12:19:23;;;;;;;;;;;7.10;99.90;;;;;;5070595;28;19939;-66
2023/03/16 12:21:54;;;;;;;;;;;7.20;99.90;;;;;;5069853;28;19933;-66
2023/03/16 12:24:25;;;;;;;;;;;7.30;99.90;;;;;;5070064;28;19978;-66
2023/03/16 12:26:52;;;;;;;;;;;7.40;99.90;;;;;;5052456;28;20366;-66
2023/03/16 12:29:20;;;;;;;;;;;7.40;99.90;;;;;;5069962;28;20373;-66
2023/03/16 12:31:51;;;;;;;;;;;7.60;99.90;;;;;;5069467;28;20047;-67
2023/03/16 12:34:27;;;;;;;;;;;7.60;99.90;;;;;;5057198;28;19928;-67
2023/03/16 12:37:05;;;;;;;;;;;7.70;99.90;;;;;;5071385;28;19925;-67
2023/03/16 12:39:30;;;;;;;;;;;7.70;99.90;;;;;;5060682;28;20317;-67
2023/03/16 12:42:14;;;;;;;;;;;7.80;99.90;;;;;;5073695;28;19928;-67
2023/03/16 12:44:44;;;;;;;;;;;7.90;99.90;;;;;;5068068;28;19929;-67
2023/03/16 12:47:11;;;;;;;;;;;7.90;99.90;;;;;;5057659;28;19925;-66
2023/03/16 12:49:37;;;;;;;;;;;8.00;99.90;;;;;;5054762;28;20034;-66
2023/03/16 12:52:05;;;;;;;;;;;8.00;99.90;;;;;;5073558;28;20393;-67
2023/03/16 12:54:32;;;;;;;;;;;8.10;99.90;;;;;;5072227;28;19940;-67
2023/03/16 12:57:00;;;;;;;;;;;8.10;99.90;;;;;;5073412;28;19925;-66
2023/03/16 12:59:35;;;;;;;;;;;8.20;99.90;;;;;;5072773;28;19939;-67
2023/03/16 13:02:02;;;;;;;;;;;8.20;99.90;;;;;;5072133;28;20435;-67
2023/03/16 13:04:38;;;;;;;;;;;8.30;99.90;;;;;;5072813;28;19935;-67
2023/03/16 13:07:06;;;;;;;;;;;8.30;99.90;;;;;;5073223;28;19982;-67
2023/03/16 13:09:35;;;;;;;;;;;8.30;99.90;;;;;;5071559;28;19929;-68
2023/03/16 13:12:04;;;;;;;;;;;8.30;99.90;;;;;;5059550;28;20019;-67
2023/03/16 13:14:40;;;;;;;;;;;8.30;99.90;;;;;;5073104;28;19929;-68
2023/03/16 13:17:06;;;;;;;;;;;8.30;99.90;;;;;;5071183;28;20023;-68
2023/03/16 13:19:36;;;;;;;;;;;8.30;99.90;;;;;;5072739;28;20409;-67
2023/03/16 13:22:18;;;;;;;;;;;8.30;99.90;;;;;;5054747;28;19936;-67
2023/03/16 13:24:50;;;;;;;;;;;8.30;99.90;;;;;;5065281;28;19979;-67
2023/03/16 13:27:22;;;;;;;;;;;8.30;99.90;;;;;;5072577;28;19976;-67
2023/03/16 13:29:54;;;;;;;;;;;8.40;99.90;;;;;;5072545;28;19928;-67
2023/03/16 13:32:20;;;;;;;;;;;8.40;99.90;;;;;;5072577;28;20046;-67
2023/03/16 13:34:51;;;;;;;;;;;8.40;99.90;;;;;;5072393;28;20401;-67
2023/03/16 13:37:18;;;;;;;;;;;8.50;99.90;;;;;;5071980;28;19924;-67
2023/03/16 13:39:52;;;;;;;;;;;8.50;99.90;;;;;;5054438;28;20298;-67
2023/03/16 13:42:19;;;;;;;;;;;8.60;99.90;;;;;;5072276;28;20262;-67
2023/03/16 13:44:44;;;;;;;;;;;8.60;99.90;;;;;;5071994;28;20335;-68
2023/03/16 13:47:14;;;;;;;;;;;8.70;99.90;;;;;;5056737;28;19994;-68
2023/03/16 13:49:47;;;;;;;;;;;8.80;99.90;;;;;;5072142;28;19925;-68
2023/03/16 13:52:16;;;;;;;;;;;8.90;99.90;;;;;;5071737;28;20015;-67
2023/03/16 13:54:42;;;;;;;;;;;8.90;99.90;;;;;;5054096;28;19928;-67
2023/03/16 13:57:10;;;;;;;;;;;9.00;99.90;;;;;;5071648;28;20278;-67
2023/03/16 13:59:35;;;;;;;;;;;9.10;99.90;;;;;;5070139;28;19939;-67
2023/03/16 14:02:01;;;;;;;;;;;9.10;99.90;;;;;;5034811;28;19925;-67
2023/03/16 14:04:28;;;;;;;;;;;9.00;99.90;;;;;;5072566;28;20641;-67
2023/03/16 14:06:55;;;;;;;;;;;9.00;99.90;;;;;;5067386;28;19986;-69
2023/03/16 14:09:24;;;;;;;;;;;9.00;99.90;;;;;;5068766;28;20360;-68
2023/03/16 14:11:50;;;;;;;;;;;9.10;99.90;;;;;;5070181;28;19999;-68
2023/03/16 14:14:23;;;;;;;;;;;9.10;99.90;;;;;;5050981;28;19984;-69
2023/03/16 14:16:49;;;;;;;;;;;9.20;99.90;;;;;;5049819;28;20437;-68
2023/03/16 14:19:21;;;;;;;;;;;9.10;99.90;;;;;;5071469;28;20011;-68
2023/03/16 14:21:48;;;;;;;;;;;9.10;99.90;;;;;;5053442;28;19970;-68
2023/03/16 14:24:29;;;;;;;;;;;9.10;99.90;;;;;;5060279;28;19925;-70
2023/03/16 14:26:55;;;;;;;;;;;9.20;99.90;;;;;;5053082;28;19924;-69
2023/03/16 14:29:29;;;;;;;;;;;9.20;99.90;;;;;;5056727;28;20103;-68
2023/03/16 14:31:55;;;;;;;;;;;9.20;99.90;;;;;;5036410;28;19947;-69
2023/03/16 14:34:31;;;;;;;;;;;9.20;99.90;;;;;;5071240;28;20461;-68
2023/03/16 14:37:18;;;;;;;;;;;9.20;99.90;;;;;;5053008;28;19929;-68